Ana Sayfa
METAR-TAF:

METAR-TAF

Havaalanları :

Dumas, Teksas, Amerika Birleşik Devletleri

Enlem: 35-51-28N, Boylam: 102-00-47W, yükseklik: 1129 m

Güncel hava durumu gözlemi

Rapor saat 09:55 UTC de 28 dakika önce yapıldı.
Rüzgar kuzey/kuzeydoğudan 17 kt ve 25 kt'a kadar ani rüzgarlar
Sıcaklık 19°C
Nem 83%
Basınç 1024 hPa
Görüş mesafesi: 16.1 km
1400 ft yükseklikte parçalı çok bulutlu
2400 ft yükseklikte parçalı çok bulutlu

METAR: KDUX 220955Z AUTO 03017G25KT 10SM BKN014 BKN024 19/16 A3025 RMK AO2 T01940156

Saat: 05:23 (10:23 UTC)


TAF: eksik

4.000'den fazla havaalanı için hava durumu gözlemleri ve tahminleri (METAR ve TAF raporları).

Kullanılabilir istasyonlar harita üzerinde sarı ve kırmızı noktalarla gösterilir.

İstasyonun adını görmek için fareyi noktanın üzerinde gezdirin.

Sonrasında hava gözlem ve tahminlerini görmek için tıklayın.

Haritayı değiştirmek için: yaklaştırmak için siyah artı işaretli yeşil düğmeye ve uzaklaştırmak için de eksi işaretli düğmeye hızla tıklayın; bitişik haritalar için yeşil okları kullanın.


METAR-TAF: